createdAt,value
2023-02-28T00:00:24.097Z,82.34
2023-02-28T00:02:50.790Z,82.00
2023-02-28T00:05:20.097Z,81.94
2023-02-28T00:07:47.012Z,82.52
2023-02-28T00:10:20.249Z,82.45
2023-02-28T00:12:46.677Z,82.90
2023-02-28T00:15:13.160Z,82.81
2023-02-28T00:17:39.885Z,83.29
2023-02-28T00:20:12.832Z,83.10
2023-02-28T00:22:41.610Z,82.94
2023-02-28T00:25:10.198Z,82.98
2023-02-28T00:27:38.421Z,83.38
2023-02-28T00:30:06.765Z,82.92
2023-02-28T00:32:33.713Z,83.22
2023-02-28T00:35:01.930Z,83.53
2023-02-28T00:37:28.421Z,83.66
2023-02-28T00:39:54.949Z,83.60
2023-02-28T00:42:22.778Z,83.75
2023-02-28T00:44:49.336Z,83.35
2023-02-28T00:47:16.919Z,83.87
2023-02-28T00:49:43.973Z,83.99
2023-02-28T00:52:10.990Z,83.46
2023-02-28T00:54:37.445Z,84.16
2023-02-28T00:57:04.062Z,83.97
2023-02-28T00:59:31.951Z,84.65
2023-02-28T01:01:58.787Z,83.82
2023-02-28T01:04:25.342Z,83.71
2023-02-28T01:06:51.873Z,84.05
2023-02-28T01:09:18.413Z,84.36
2023-02-28T01:11:45.084Z,84.70
2023-02-28T01:14:17.022Z,84.19
2023-02-28T01:16:46.144Z,83.88
2023-02-28T01:19:12.712Z,83.59
2023-02-28T01:21:39.330Z,83.11
2023-02-28T01:24:06.499Z,83.42
2023-02-28T01:26:33.019Z,83.13
2023-02-28T01:28:59.634Z,83.45
2023-02-28T01:31:26.282Z,83.49
2023-02-28T01:33:52.929Z,84.26
2023-02-28T01:36:25.252Z,84.26
2023-02-28T01:38:52.213Z,84.72
2023-02-28T01:41:27.556Z,84.54
2023-02-28T01:44:04.101Z,84.67
2023-02-28T01:46:36.049Z,84.70
2023-02-28T01:49:12.098Z,84.93
2023-02-28T01:51:55.568Z,85.30
2023-02-28T01:54:25.468Z,85.40
2023-02-28T01:57:02.235Z,85.62
2023-02-28T01:59:36.105Z,85.59
2023-02-28T02:02:03.661Z,86.00
2023-02-28T02:04:38.242Z,85.75
2023-02-28T02:07:05.265Z,85.67
2023-02-28T02:09:31.734Z,86.19
2023-02-28T02:11:58.817Z,85.75
2023-02-28T02:14:37.147Z,85.89
2023-02-28T02:17:15.898Z,86.63
2023-02-28T02:20:19.868Z,87.00
2023-02-28T02:23:00.943Z,86.67
2023-02-28T02:26:11.635Z,87.02
2023-02-28T02:29:05.771Z,87.75
2023-02-28T02:32:09.716Z,88.14
2023-02-28T02:35:06.884Z,87.93
2023-02-28T02:37:44.298Z,87.95
2023-02-28T02:40:17.386Z,87.92
2023-02-28T02:42:59.866Z,87.78
2023-02-28T02:45:37.013Z,88.17
2023-02-28T02:48:07.837Z,88.18
2023-02-28T02:50:46.438Z,87.65
2023-02-28T02:53:16.165Z,87.97
2023-02-28T02:55:48.340Z,87.06
2023-02-28T02:58:21.156Z,87.29
2023-02-28T03:00:52.168Z,86.83
2023-02-28T03:03:21.747Z,86.56
2023-02-28T03:05:51.427Z,86.58
2023-02-28T03:08:18.588Z,85.84
2023-02-28T03:10:49.313Z,85.97
2023-02-28T03:13:17.267Z,86.05
2023-02-28T03:16:04.977Z,85.78
2023-02-28T03:18:38.267Z,86.31
2023-02-28T03:21:18.622Z,86.50
2023-02-28T03:24:16.870Z,86.41
2023-02-28T03:26:46.276Z,86.72
2023-02-28T03:29:32.218Z,86.84
2023-02-28T03:32:05.291Z,87.28
2023-02-28T03:34:38.790Z,86.70
2023-02-28T03:37:12.001Z,86.66
2023-02-28T03:39:43.791Z,86.93
2023-02-28T03:42:15.542Z,87.40
2023-02-28T03:44:46.581Z,87.01
2023-02-28T03:47:25.055Z,87.00
2023-02-28T03:49:57.712Z,87.04
2023-02-28T03:52:30.779Z,86.58
2023-02-28T03:55:04.513Z,86.53
2023-02-28T03:57:44.475Z,86.32
2023-02-28T04:00:20.359Z,86.70
2023-02-28T04:02:47.056Z,86.42
2023-02-28T04:05:13.537Z,86.75
2023-02-28T04:07:40.017Z,86.85
2023-02-28T04:10:07.410Z,86.95
2023-02-28T04:12:33.956Z,86.62
2023-02-28T04:15:00.395Z,86.50
2023-02-28T04:17:26.904Z,86.69
2023-02-28T04:19:53.311Z,86.67
2023-02-28T04:22:19.805Z,86.68
2023-02-28T04:24:46.490Z,86.77
2023-02-28T04:27:13.083Z,86.89
2023-02-28T04:29:39.571Z,87.31
2023-02-28T04:32:06.245Z,87.25
2023-02-28T04:34:33.829Z,87.49
2023-02-28T04:37:17.019Z,87.92
2023-02-28T04:39:44.524Z,87.46
2023-02-28T04:42:11.850Z,87.75
2023-02-28T04:44:38.306Z,87.71
2023-02-28T04:47:04.877Z,88.03
2023-02-28T04:49:31.298Z,87.92
2023-02-28T04:51:57.768Z,88.23
2023-02-28T04:54:24.203Z,88.31
2023-02-28T04:56:50.883Z,88.38
2023-02-28T04:59:17.634Z,87.96
2023-02-28T05:01:47.806Z,88.23
2023-02-28T05:04:14.882Z,88.44
2023-02-28T05:06:41.313Z,88.70
2023-02-28T05:09:07.771Z,88.60
2023-02-28T05:11:36.109Z,88.60
2023-02-28T05:14:05.486Z,89.12
2023-02-28T05:16:33.081Z,89.38
2023-02-28T05:18:59.993Z,89.09
2023-02-28T05:21:31.660Z,89.62
2023-02-28T05:24:00.332Z,89.60
2023-02-28T05:26:27.816Z,89.39
2023-02-28T05:28:54.375Z,89.27
2023-02-28T05:31:21.339Z,89.55
2023-02-28T05:33:48.360Z,89.13
2023-02-28T05:36:15.309Z,89.21
2023-02-28T05:38:41.782Z,88.82
2023-02-28T05:41:10.556Z,89.05
2023-02-28T05:43:38.234Z,89.48
2023-02-28T05:46:07.499Z,89.60
2023-02-28T05:48:35.810Z,89.20
2023-02-28T05:51:03.525Z,89.42
2023-02-28T05:53:30.649Z,89.38
2023-02-28T05:55:57.546Z,89.40
2023-02-28T05:58:26.445Z,89.48
2023-02-28T06:00:52.917Z,89.52
2023-02-28T06:03:19.487Z,89.28
2023-02-28T06:05:46.024Z,89.15
2023-02-28T06:08:12.467Z,89.03
2023-02-28T06:10:39.059Z,89.47
2023-02-28T06:13:06.228Z,89.65
2023-02-28T06:15:32.802Z,90.06
2023-02-28T06:17:59.588Z,90.23
2023-02-28T06:20:30.147Z,89.92
2023-02-28T06:22:59.724Z,89.97
2023-02-28T06:25:29.453Z,90.27
2023-02-28T06:27:56.406Z,90.08
2023-02-28T06:30:27.761Z,90.20
2023-02-28T06:32:55.479Z,90.25
2023-02-28T06:35:23.459Z,90.23
2023-02-28T06:37:50.146Z,89.98
2023-02-28T06:40:16.800Z,90.43
2023-02-28T06:42:43.562Z,90.24
2023-02-28T06:45:11.446Z,89.41
2023-02-28T06:47:39.622Z,89.60
2023-02-28T06:50:07.167Z,89.68
2023-02-28T06:52:33.977Z,89.59
2023-02-28T06:55:03.333Z,89.75
2023-02-28T06:57:34.380Z,89.59
2023-02-28T07:00:03.817Z,89.75
2023-02-28T07:02:30.331Z,89.58
2023-02-28T07:04:56.843Z,89.57
2023-02-28T07:07:23.310Z,89.77
2023-02-28T07:09:49.773Z,89.62
2023-02-28T07:12:16.320Z,89.81
2023-02-28T07:14:42.759Z,89.74
2023-02-28T07:17:11.793Z,89.15
2023-02-28T07:19:39.118Z,89.43
2023-02-28T07:22:06.394Z,89.43
2023-02-28T07:24:33.267Z,89.75
2023-02-28T07:27:00.315Z,89.34
2023-02-28T07:29:26.864Z,89.15
2023-02-28T07:31:54.157Z,88.83
2023-02-28T07:34:21.798Z,89.29
2023-02-28T07:36:48.274Z,88.82
2023-02-28T07:39:14.765Z,88.64
2023-02-28T07:41:44.394Z,88.93
2023-02-28T07:44:12.403Z,88.99
2023-02-28T07:46:39.470Z,88.92
2023-02-28T07:49:06.483Z,88.54
2023-02-28T07:51:33.848Z,88.16
2023-02-28T07:54:00.332Z,88.11
2023-02-28T07:56:27.104Z,87.54
2023-02-28T07:58:54.027Z,87.36
2023-02-28T08:01:20.963Z,87.14
2023-02-28T08:03:47.420Z,86.80
2023-02-28T08:06:21.622Z,85.90
2023-02-28T08:08:48.262Z,85.81
2023-02-28T08:11:15.058Z,84.43
2023-02-28T08:13:43.302Z,83.66
2023-02-28T08:16:09.859Z,83.00
2023-02-28T08:18:36.379Z,82.41
2023-02-28T08:21:12.206Z,81.90
2023-02-28T08:23:39.059Z,82.33
2023-02-28T08:26:05.882Z,81.55
2023-02-28T08:28:32.646Z,80.41
2023-02-28T08:30:59.416Z,80.93
2023-02-28T08:33:26.471Z,80.52
2023-02-28T08:35:55.426Z,80.95
2023-02-28T08:38:22.437Z,81.31
2023-02-28T08:40:48.966Z,81.33
2023-02-28T08:43:15.554Z,80.60
2023-02-28T08:45:42.085Z,80.52
2023-02-28T08:48:08.953Z,80.30
2023-02-28T08:50:35.536Z,79.86
2023-02-28T08:53:02.096Z,79.71
2023-02-28T08:55:28.591Z,79.01
2023-02-28T08:57:55.903Z,79.21
2023-02-28T09:00:23.004Z,78.87
2023-02-28T09:02:49.439Z,79.11
2023-02-28T09:05:16.027Z,78.56
2023-02-28T09:07:42.691Z,78.26
2023-02-28T09:10:10.445Z,78.88
2023-02-28T09:12:36.994Z,78.81
2023-02-28T09:15:03.902Z,79.13
2023-02-28T09:17:31.212Z,78.75
2023-02-28T09:19:58.488Z,78.70
2023-02-28T09:22:25.276Z,78.87
2023-02-28T09:24:51.923Z,78.82
2023-02-28T09:27:18.434Z,78.47
2023-02-28T09:29:44.882Z,77.14
2023-02-28T09:32:11.600Z,77.60
2023-02-28T09:34:38.559Z,78.16
2023-02-28T09:37:05.475Z,77.40
2023-02-28T09:39:32.630Z,76.12
2023-02-28T09:41:59.367Z,76.25
2023-02-28T09:44:29.909Z,76.69
2023-02-28T09:47:04.361Z,75.91
2023-02-28T09:49:43.279Z,76.05
2023-02-28T09:52:14.689Z,75.88
2023-02-28T09:54:41.496Z,76.05
2023-02-28T09:57:17.500Z,74.09
2023-02-28T10:00:02.252Z,73.56
2023-02-28T10:02:59.125Z,73.81
2023-02-28T10:05:29.838Z,72.23
2023-02-28T10:08:09.273Z,71.18
2023-02-28T10:10:56.399Z,70.39
2023-02-28T10:13:45.783Z,70.84
2023-02-28T10:16:17.243Z,69.17
2023-02-28T10:19:07.013Z,68.70
2023-02-28T10:21:41.350Z,65.75
2023-02-28T10:24:23.972Z,66.69
2023-02-28T10:26:54.701Z,66.30
2023-02-28T10:29:21.198Z,66.08
2023-02-28T10:31:47.893Z,65.06
2023-02-28T10:34:14.995Z,64.17
2023-02-28T10:36:44.146Z,63.36
2023-02-28T10:39:35.804Z,63.74
2023-02-28T10:42:02.247Z,60.14
2023-02-28T10:44:28.763Z,61.88
2023-02-28T10:46:55.893Z,59.85
2023-02-28T10:49:24.972Z,59.58
2023-02-28T10:51:55.716Z,59.36
2023-02-28T10:54:36.175Z,55.36
2023-02-28T10:57:18.726Z,55.26
2023-02-28T10:59:45.538Z,57.15
2023-02-28T11:04:59.538Z,55.99
2023-02-28T11:07:27.796Z,57.40
2023-02-28T11:09:59.096Z,57.05
2023-02-28T11:12:29.285Z,57.65
2023-02-28T11:15:00.925Z,57.86
2023-02-28T11:17:30.825Z,57.05
2023-02-28T11:20:02.434Z,56.19
2023-02-28T11:22:32.583Z,55.51
2023-02-28T11:25:03.442Z,54.73
2023-02-28T11:27:32.857Z,55.57
2023-02-28T11:30:00.305Z,55.23
2023-02-28T11:32:31.361Z,54.19
2023-02-28T11:35:23.915Z,54.28
2023-02-28T11:37:50.489Z,54.69
2023-02-28T11:40:19.854Z,55.09
2023-02-28T11:42:56.986Z,55.73
2023-02-28T11:45:30.202Z,55.50
2023-02-28T11:48:16.910Z,55.56
2023-02-28T11:51:01.459Z,55.45
2023-02-28T11:53:49.721Z,53.77
2023-02-28T11:56:24.135Z,52.70
2023-02-28T11:59:07.082Z,52.79
2023-02-28T12:02:07.490Z,52.06
2023-02-28T12:05:09.193Z,51.54
2023-02-28T12:07:53.399Z,52.53
2023-02-28T12:10:27.316Z,53.22
2023-02-28T12:13:17.108Z,50.64
2023-02-28T12:16:02.521Z,51.14
2023-02-28T12:18:53.731Z,49.62
2023-02-28T12:21:39.983Z,50.57
2023-02-28T12:24:18.721Z,50.95
2023-02-28T12:26:47.218Z,51.67
2023-02-28T12:29:28.168Z,51.32
2023-02-28T12:32:02.713Z,51.29
2023-02-28T12:34:37.985Z,51.90
2023-02-28T12:37:14.573Z,51.27
2023-02-28T12:39:50.705Z,50.89
2023-02-28T12:42:27.159Z,50.70
2023-02-28T12:45:22.110Z,51.47
2023-02-28T12:47:53.918Z,51.00
2023-02-28T12:50:20.940Z,51.33
2023-02-28T12:53:32.537Z,51.31
2023-02-28T12:56:17.548Z,51.86
2023-02-28T12:58:56.372Z,52.65
2023-02-28T13:01:37.801Z,51.74
2023-02-28T13:04:41.599Z,51.89
2023-02-28T13:07:14.062Z,52.32
2023-02-28T13:09:41.281Z,53.43
2023-02-28T13:12:15.733Z,52.50
2023-02-28T13:14:42.324Z,51.96
2023-02-28T13:17:12.137Z,52.73
2023-02-28T13:19:55.075Z,52.12
2023-02-28T13:22:48.094Z,51.43
2023-02-28T13:25:23.940Z,49.99
2023-02-28T13:27:57.276Z,50.42
2023-02-28T13:30:51.937Z,50.08
2023-02-28T13:34:03.346Z,49.45
2023-02-28T13:36:32.633Z,49.20
2023-02-28T13:39:01.384Z,49.15
2023-02-28T13:41:37.014Z,49.18
2023-02-28T13:44:27.753Z,50.19
2023-02-28T13:46:57.035Z,50.42
2023-02-28T13:49:23.853Z,50.53
2023-02-28T13:51:52.431Z,50.41
2023-02-28T13:54:57.348Z,50.36
2023-02-28T13:57:42.708Z,49.93
2023-02-28T14:00:43.550Z,49.83
2023-02-28T14:03:38.188Z,49.06
2023-02-28T14:06:19.354Z,49.73
2023-02-28T14:08:57.924Z,48.53
2023-02-28T14:11:32.239Z,48.95
2023-02-28T14:13:59.834Z,48.66
2023-02-28T14:16:36.175Z,48.51
2023-02-28T14:19:11.553Z,48.84
2023-02-28T14:21:49.927Z,48.40
2023-02-28T14:24:39.604Z,48.78
2023-02-28T14:27:35.741Z,48.66
2023-02-28T14:30:37.824Z,49.54
2023-02-28T14:33:19.292Z,48.72
2023-02-28T14:36:07.191Z,48.44
2023-02-28T14:38:43.835Z,48.85
2023-02-28T14:41:32.325Z,48.26
2023-02-28T14:44:00.767Z,48.37
2023-02-28T14:46:39.312Z,48.34
2023-02-28T14:49:10.678Z,48.43
2023-02-28T14:51:37.241Z,48.51
2023-02-28T14:54:04.794Z,48.18
2023-02-28T14:56:39.326Z,48.97
2023-02-28T14:59:25.632Z,49.46
2023-02-28T15:01:53.328Z,49.51
2023-02-28T15:04:26.862Z,48.81
2023-02-28T15:07:11.740Z,48.93
2023-02-28T15:09:38.314Z,49.50
2023-02-28T15:12:05.098Z,49.64
2023-02-28T15:14:33.061Z,50.55
2023-02-28T15:17:06.777Z,50.02
2023-02-28T15:19:37.132Z,49.56
2023-02-28T15:22:09.680Z,50.37
2023-02-28T15:24:40.203Z,50.26
2023-02-28T15:27:33.068Z,50.04
2023-02-28T15:30:06.032Z,49.70
2023-02-28T15:32:35.695Z,49.91
2023-02-28T15:35:21.069Z,50.55
2023-02-28T15:37:53.365Z,49.86
2023-02-28T15:40:42.021Z,50.41
2023-02-28T15:43:18.968Z,50.11
2023-02-28T15:45:50.900Z,50.54
2023-02-28T15:48:24.107Z,50.65
2023-02-28T15:50:56.810Z,50.74
2023-02-28T15:53:32.053Z,51.12
2023-02-28T15:56:02.475Z,51.39
2023-02-28T15:58:29.947Z,51.30
2023-02-28T16:01:20.107Z,50.64
2023-02-28T16:03:50.448Z,50.84
2023-02-28T16:06:58.570Z,51.32
2023-02-28T16:09:25.472Z,51.46
2023-02-28T16:11:55.941Z,50.88
2023-02-28T16:14:31.659Z,50.78
2023-02-28T16:17:05.840Z,50.39
2023-02-28T16:19:34.399Z,51.06
2023-02-28T16:22:02.089Z,50.98
2023-02-28T16:24:28.528Z,50.34
2023-02-28T16:26:57.189Z,50.99
2023-02-28T16:29:36.894Z,51.04
2023-02-28T16:32:06.254Z,51.32
2023-02-28T16:34:32.943Z,51.35
2023-02-28T16:36:59.859Z,51.13
2023-02-28T16:39:26.294Z,51.04
2023-02-28T16:41:53.120Z,52.04
2023-02-28T16:44:30.178Z,51.43
2023-02-28T16:46:57.463Z,51.12
2023-02-28T16:49:24.097Z,51.74
2023-02-28T16:51:50.585Z,51.92
2023-02-28T16:54:17.025Z,51.76
2023-02-28T16:56:46.844Z,51.66
2023-02-28T16:59:14.562Z,52.88
2023-02-28T17:01:41.132Z,52.17
2023-02-28T17:04:10.230Z,52.93
2023-02-28T17:06:36.702Z,53.11
2023-02-28T17:09:03.445Z,53.10
2023-02-28T17:11:30.210Z,53.39
2023-02-28T17:13:56.982Z,53.47
2023-02-28T17:16:29.858Z,53.55
2023-02-28T17:19:00.186Z,54.50
2023-02-28T17:21:27.276Z,54.92
2023-02-28T17:23:53.771Z,54.88
2023-02-28T17:26:22.063Z,55.36
2023-02-28T17:28:49.695Z,55.53
2023-02-28T17:31:16.397Z,56.06
2023-02-28T17:33:43.101Z,56.31
2023-02-28T17:36:15.461Z,56.64
2023-02-28T17:38:42.387Z,56.65
2023-02-28T17:41:11.645Z,56.51
2023-02-28T17:43:38.775Z,56.91
2023-02-28T17:46:06.759Z,57.61
2023-02-28T17:48:34.241Z,57.66
2023-02-28T17:51:00.944Z,58.07
2023-02-28T17:53:28.101Z,58.34
2023-02-28T17:55:54.569Z,58.07
2023-02-28T17:58:21.037Z,58.62
2023-02-28T18:00:48.736Z,58.54
2023-02-28T18:03:15.247Z,59.04
2023-02-28T18:05:41.814Z,59.30
2023-02-28T18:08:11.489Z,59.63
2023-02-28T18:10:38.099Z,59.94
2023-02-28T18:13:04.709Z,60.33
2023-02-28T18:15:31.239Z,60.70
2023-02-28T18:17:57.783Z,60.69
2023-02-28T18:20:24.270Z,61.12
2023-02-28T18:22:50.950Z,61.10
2023-02-28T18:25:17.930Z,61.46
2023-02-28T18:27:58.114Z,61.43
2023-02-28T18:30:27.387Z,61.75
2023-02-28T18:32:53.865Z,62.00
2023-02-28T18:35:34.852Z,62.34
2023-02-28T18:38:22.475Z,62.58
2023-02-28T18:40:54.107Z,63.17
2023-02-28T18:43:20.853Z,63.24
2023-02-28T18:45:47.397Z,63.36
2023-02-28T18:48:15.056Z,63.22
2023-02-28T18:50:44.698Z,63.95
2023-02-28T18:53:11.388Z,64.02
2023-02-28T18:55:37.843Z,64.19
2023-02-28T18:58:04.724Z,64.89
2023-02-28T19:00:31.454Z,64.83
2023-02-28T19:02:58.074Z,65.40
2023-02-28T19:05:24.617Z,65.61
2023-02-28T19:07:51.135Z,65.39
2023-02-28T19:10:17.671Z,66.00
2023-02-28T19:12:44.192Z,66.27
2023-02-28T19:15:11.691Z,66.33
2023-02-28T19:17:38.409Z,66.34
2023-02-28T19:20:06.296Z,66.91
2023-02-28T19:22:33.187Z,67.31
2023-02-28T19:24:59.822Z,67.36
2023-02-28T19:27:26.314Z,67.53
2023-02-28T19:29:53.107Z,67.69
2023-02-28T19:32:20.944Z,67.87
2023-02-28T19:34:47.961Z,68.09
2023-02-28T19:37:14.838Z,68.18
2023-02-28T19:39:44.485Z,68.11
2023-02-28T19:42:16.039Z,68.57
2023-02-28T19:44:43.177Z,68.71
2023-02-28T19:47:09.945Z,68.82
2023-02-28T19:49:37.209Z,69.33
2023-02-28T19:52:05.343Z,69.79
2023-02-28T19:54:31.935Z,69.51
2023-02-28T19:56:58.876Z,69.60
2023-02-28T19:59:35.870Z,70.09
2023-02-28T20:02:06.683Z,70.02
2023-02-28T20:04:33.222Z,70.32
2023-02-28T20:06:59.682Z,70.98
2023-02-28T20:09:31.118Z,70.87
2023-02-28T20:11:59.420Z,70.88
2023-02-28T20:14:26.684Z,71.15
2023-02-28T20:16:53.310Z,71.20
2023-02-28T20:19:20.109Z,71.48
2023-02-28T20:21:46.932Z,71.26
2023-02-28T20:24:13.585Z,72.04
2023-02-28T20:26:40.412Z,71.86
2023-02-28T20:29:08.305Z,71.68
2023-02-28T20:31:37.598Z,72.15
2023-02-28T20:34:05.350Z,72.29
2023-02-28T20:36:32.445Z,72.41
2023-02-28T20:39:00.325Z,72.63
2023-02-28T20:41:27.727Z,73.27
2023-02-28T20:43:58.722Z,73.44
2023-02-28T20:46:26.078Z,73.54
2023-02-28T20:48:52.682Z,73.51
2023-02-28T20:51:19.677Z,73.67
2023-02-28T20:53:46.252Z,73.84
2023-02-28T20:56:18.711Z,74.06
2023-02-28T20:58:47.339Z,74.36
2023-02-28T21:01:25.849Z,74.13
2023-02-28T21:03:57.923Z,74.90
2023-02-28T21:06:27.073Z,74.75
2023-02-28T21:08:53.730Z,75.24
2023-02-28T21:11:25.488Z,75.04
2023-02-28T21:13:52.838Z,75.33
2023-02-28T21:16:21.762Z,75.31
2023-02-28T21:18:49.210Z,75.76
2023-02-28T21:21:19.255Z,75.81
2023-02-28T21:23:46.699Z,75.28
2023-02-28T21:26:19.236Z,76.24
2023-02-28T21:29:00.364Z,76.24
2023-02-28T21:31:30.074Z,76.02
2023-02-28T21:33:58.682Z,76.44
2023-02-28T21:36:29.514Z,76.66
2023-02-28T21:38:58.378Z,76.40
2023-02-28T21:41:25.736Z,76.62
2023-02-28T21:43:53.333Z,76.36
2023-02-28T21:46:22.877Z,76.66
2023-02-28T21:48:50.826Z,76.85
2023-02-28T21:51:23.396Z,76.61
2023-02-28T21:53:50.759Z,76.65
2023-02-28T21:56:24.913Z,76.87
2023-02-28T21:59:00.338Z,77.32
2023-02-28T22:01:34.503Z,77.45
2023-02-28T22:04:02.093Z,76.93
2023-02-28T22:06:31.468Z,77.06
2023-02-28T22:09:00.474Z,77.44
2023-02-28T22:11:26.980Z,77.28
2023-02-28T22:13:56.025Z,77.49
2023-02-28T22:16:25.199Z,77.49
2023-02-28T22:18:52.110Z,77.85
2023-02-28T22:21:19.496Z,78.03
2023-02-28T22:23:46.723Z,78.19
2023-02-28T22:26:19.622Z,78.18
2023-02-28T22:28:46.211Z,78.64
2023-02-28T22:31:19.839Z,78.94
2023-02-28T22:33:47.848Z,78.72
2023-02-28T22:36:17.018Z,78.77
2023-02-28T22:38:44.946Z,78.88
2023-02-28T22:41:12.444Z,78.92
2023-02-28T22:43:40.525Z,78.79
2023-02-28T22:46:09.034Z,79.26
2023-02-28T22:48:37.731Z,79.14
2023-02-28T22:51:13.235Z,79.11
2023-02-28T22:53:39.701Z,79.60
2023-02-28T22:56:07.491Z,79.17
2023-02-28T22:58:34.540Z,79.26
2023-02-28T23:01:14.118Z,79.40
2023-02-28T23:03:41.796Z,79.21
2023-02-28T23:06:19.568Z,79.54
2023-02-28T23:08:46.139Z,79.55
2023-02-28T23:11:21.749Z,79.93
2023-02-28T23:13:58.704Z,79.78
2023-02-28T23:16:36.063Z,79.91
2023-02-28T23:19:10.803Z,79.87
2023-02-28T23:21:38.454Z,80.14
2023-02-28T23:24:10.501Z,80.00
2023-02-28T23:26:39.422Z,80.43
2023-02-28T23:29:06.100Z,80.48
2023-02-28T23:31:33.776Z,80.17
2023-02-28T23:34:00.731Z,80.53
2023-02-28T23:36:28.644Z,80.82
2023-02-28T23:38:56.143Z,80.51
2023-02-28T23:41:23.740Z,80.84
2023-02-28T23:43:52.710Z,80.94
2023-02-28T23:46:20.929Z,81.09
2023-02-28T23:48:47.887Z,81.42
2023-02-28T23:51:17.349Z,81.29
2023-02-28T23:53:47.704Z,81.62
2023-02-28T23:56:16.426Z,81.60
2023-02-28T23:58:43.811Z,81.70
